KHFF/HFF METAR and TAF weather

Enter ICAO airport designator
Station Type Date Time Source
KHFF METAR 2021/09/24 02:56 UTC NOAA

KHFF 240256Z 00000KT 10SM CLR 14/14 A2999 RMK AO2A SLP157 T01410135 50015 $


Station Type Date Time Source
KHFF Decoded METAR 2021/09/24 02:56 UTC NOAA

Mackall U. S. Army Airfield, NC, United States (KHFF) 35-02N 079-30W
Sep 23, 2021 - 10:56 PM EDT / 2021.09.24 0256 UTC
Wind: Calm:0
Visibility: 10 mile(s):0
Sky conditions: clear
Temperature: 57.4 F (14.1 C)
Dew Point: 56.3 F (13.5 C)
Relative Humidity: 96%
Pressure (altimeter): 29.99 in. Hg (1015 hPa)
Pressure tendency: 0.04 inches (1.5 hPa) higher than three hours ago
ob: KHFF 240256Z 00000KT 10SM CLR 14/14 A2999 RMK AO2A SLP157 T01410135 50015
cycle: 3

Station Type Date Time Source
KHFF TAF UTC NOAA

Error!

Example: see airport list